sensor_id;sensor_type;location;lat;lon;timestamp;P1;durP1;ratioP1;P2;durP2;ratioP2
24157;SDS011;12316;50.904;4.200;2024-02-28T00:02:02;19.30;;;13.52;;
24157;SDS011;12316;50.904;4.200;2024-02-28T00:04:27;18.13;;;13.20;;
24157;SDS011;12316;50.904;4.200;2024-02-28T00:07:06;16.63;;;13.00;;
24157;SDS011;12316;50.904;4.200;2024-02-28T00:09:33;18.08;;;13.13;;
24157;SDS011;12316;50.904;4.200;2024-02-28T00:11:59;17.42;;;13.45;;
24157;SDS011;12316;50.904;4.200;2024-02-28T00:14:24;20.55;;;14.10;;
24157;SDS011;12316;50.904;4.200;2024-02-28T00:16:50;20.95;;;15.32;;
24157;SDS011;12316;50.904;4.200;2024-02-28T00:19:16;15.63;;;12.35;;
24157;SDS011;12316;50.904;4.200;2024-02-28T00:21:43;20.92;;;14.65;;
24157;SDS011;12316;50.904;4.200;2024-02-28T00:24:09;18.00;;;13.48;;
24157;SDS011;12316;50.904;4.200;2024-02-28T00:26:35;17.23;;;13.30;;
24157;SDS011;12316;50.904;4.200;2024-02-28T00:29:01;19.45;;;13.82;;
24157;SDS011;12316;50.904;4.200;2024-02-28T00:31:27;17.42;;;13.43;;
24157;SDS011;12316;50.904;4.200;2024-02-28T00:33:52;20.85;;;14.05;;
24157;SDS011;12316;50.904;4.200;2024-02-28T00:36:18;19.55;;;13.98;;
24157;SDS011;12316;50.904;4.200;2024-02-28T00:38:44;18.38;;;13.50;;
24157;SDS011;12316;50.904;4.200;2024-02-28T00:41:09;16.95;;;13.48;;
24157;SDS011;12316;50.904;4.200;2024-02-28T00:43:35;18.98;;;13.68;;
24157;SDS011;12316;50.904;4.200;2024-02-28T00:46:01;18.55;;;13.45;;
24157;SDS011;12316;50.904;4.200;2024-02-28T00:48:27;18.50;;;13.45;;
24157;SDS011;12316;50.904;4.200;2024-02-28T00:50:53;20.25;;;13.38;;
24157;SDS011;12316;50.904;4.200;2024-02-28T00:53:19;16.83;;;13.07;;
24157;SDS011;12316;50.904;4.200;2024-02-28T00:55:45;19.67;;;13.65;;
24157;SDS011;12316;50.904;4.200;2024-02-28T00:58:11;17.55;;;14.00;;
24157;SDS011;12316;50.904;4.200;2024-02-28T01:00:36;21.13;;;14.45;;
24157;SDS011;12316;50.904;4.200;2024-02-28T01:03:03;17.95;;;14.02;;
24157;SDS011;12316;50.904;4.200;2024-02-28T01:05:29;19.48;;;14.23;;
24157;SDS011;12316;50.904;4.200;2024-02-28T01:07:55;17.75;;;13.68;;
24157;SDS011;12316;50.904;4.200;2024-02-28T01:10:21;19.85;;;14.38;;
24157;SDS011;12316;50.904;4.200;2024-02-28T01:12:47;22.25;;;14.90;;
24157;SDS011;12316;50.904;4.200;2024-02-28T01:15:13;19.88;;;14.93;;
24157;SDS011;12316;50.904;4.200;2024-02-28T01:17:39;19.45;;;13.88;;
24157;SDS011;12316;50.904;4.200;2024-02-28T01:20:05;20.35;;;14.77;;
24157;SDS011;12316;50.904;4.200;2024-02-28T01:22:32;19.83;;;14.20;;
24157;SDS011;12316;50.904;4.200;2024-02-28T01:24:58;20.20;;;13.95;;
24157;SDS011;12316;50.904;4.200;2024-02-28T01:27:24;19.15;;;15.07;;
24157;SDS011;12316;50.904;4.200;2024-02-28T01:29:50;19.67;;;15.48;;
24157;SDS011;12316;50.904;4.200;2024-02-28T01:32:15;20.83;;;14.30;;
24157;SDS011;12316;50.904;4.200;2024-02-28T01:34:41;20.85;;;14.73;;
24157;SDS011;12316;50.904;4.200;2024-02-28T01:37:06;19.33;;;13.82;;
24157;SDS011;12316;50.904;4.200;2024-02-28T01:39:32;18.88;;;13.57;;
24157;SDS011;12316;50.904;4.200;2024-02-28T01:41:58;18.80;;;13.52;;
24157;SDS011;12316;50.904;4.200;2024-02-28T01:44:23;18.23;;;13.90;;
24157;SDS011;12316;50.904;4.200;2024-02-28T01:46:49;19.65;;;13.05;;
24157;SDS011;12316;50.904;4.200;2024-02-28T01:49:16;19.73;;;13.75;;
24157;SDS011;12316;50.904;4.200;2024-02-28T01:51:42;19.77;;;13.93;;
24157;SDS011;12316;50.904;4.200;2024-02-28T01:54:10;18.88;;;12.90;;
24157;SDS011;12316;50.904;4.200;2024-02-28T01:56:36;15.68;;;12.15;;
24157;SDS011;12316;50.904;4.200;2024-02-28T01:59:03;16.77;;;13.02;;
24157;SDS011;12316;50.904;4.200;2024-02-28T02:01:29;19.30;;;13.80;;
24157;SDS011;12316;50.904;4.200;2024-02-28T02:03:56;20.17;;;14.20;;
24157;SDS011;12316;50.904;4.200;2024-02-28T02:06:21;17.65;;;13.45;;
24157;SDS011;12316;50.904;4.200;2024-02-28T02:08:47;20.40;;;14.55;;
24157;SDS011;12316;50.904;4.200;2024-02-28T02:11:17;21.90;;;14.48;;
24157;SDS011;12316;50.904;4.200;2024-02-28T02:13:51;13.18;;;9.98;;
24157;SDS011;12316;50.904;4.200;2024-02-28T02:18:43;16.33;;;12.50;;
24157;SDS011;12316;50.904;4.200;2024-02-28T02:21:09;20.08;;;14.18;;
24157;SDS011;12316;50.904;4.200;2024-02-28T02:23:37;22.42;;;14.25;;
24157;SDS011;12316;50.904;4.200;2024-02-28T02:26:06;22.38;;;15.73;;
24157;SDS011;12316;50.904;4.200;2024-02-28T02:28:32;21.25;;;13.80;;
24157;SDS011;12316;50.904;4.200;2024-02-28T02:30:58;19.30;;;13.55;;
24157;SDS011;12316;50.904;4.200;2024-02-28T02:33:24;18.88;;;13.52;;
24157;SDS011;12316;50.904;4.200;2024-02-28T02:35:51;19.77;;;14.60;;
24157;SDS011;12316;50.904;4.200;2024-02-28T02:38:17;21.50;;;14.05;;
24157;SDS011;12316;50.904;4.200;2024-02-28T02:40:43;20.30;;;13.30;;
24157;SDS011;12316;50.904;4.200;2024-02-28T02:43:09;20.27;;;14.25;;
24157;SDS011;12316;50.904;4.200;2024-02-28T02:45:35;19.05;;;13.80;;
24157;SDS011;12316;50.904;4.200;2024-02-28T02:48:00;18.83;;;14.18;;
24157;SDS011;12316;50.904;4.200;2024-02-28T02:50:26;17.65;;;13.43;;
24157;SDS011;12316;50.904;4.200;2024-02-28T02:52:52;17.48;;;13.68;;
24157;SDS011;12316;50.904;4.200;2024-02-28T02:55:17;18.65;;;13.85;;
24157;SDS011;12316;50.904;4.200;2024-02-28T02:57:44;17.95;;;13.63;;
24157;SDS011;12316;50.904;4.200;2024-02-28T03:00:10;19.88;;;13.35;;
24157;SDS011;12316;50.904;4.200;2024-02-28T03:02:36;20.15;;;14.68;;
24157;SDS011;12316;50.904;4.200;2024-02-28T03:05:05;16.92;;;13.05;;
24157;SDS011;12316;50.904;4.200;2024-02-28T03:07:31;19.50;;;12.82;;
24157;SDS011;12316;50.904;4.200;2024-02-28T03:09:57;18.33;;;12.82;;
24157;SDS011;12316;50.904;4.200;2024-02-28T03:12:23;18.52;;;13.52;;
24157;SDS011;12316;50.904;4.200;2024-02-28T03:14:49;18.02;;;13.30;;
24157;SDS011;12316;50.904;4.200;2024-02-28T03:17:14;18.75;;;12.75;;
24157;SDS011;12316;50.904;4.200;2024-02-28T03:19:40;18.65;;;12.93;;
24157;SDS011;12316;50.904;4.200;2024-02-28T03:22:06;19.10;;;14.07;;
24157;SDS011;12316;50.904;4.200;2024-02-28T03:24:32;18.48;;;13.23;;
24157;SDS011;12316;50.904;4.200;2024-02-28T03:27:00;18.10;;;13.45;;
24157;SDS011;12316;50.904;4.200;2024-02-28T03:29:29;19.90;;;13.10;;
24157;SDS011;12316;50.904;4.200;2024-02-28T03:31:55;17.70;;;13.65;;
24157;SDS011;12316;50.904;4.200;2024-02-28T03:34:21;19.65;;;14.30;;
24157;SDS011;12316;50.904;4.200;2024-02-28T03:36:47;23.45;;;14.77;;
24157;SDS011;12316;50.904;4.200;2024-02-28T03:39:12;24.55;;;15.82;;
24157;SDS011;12316;50.904;4.200;2024-02-28T03:41:38;22.73;;;16.10;;
24157;SDS011;12316;50.904;4.200;2024-02-28T03:44:04;20.23;;;15.18;;
24157;SDS011;12316;50.904;4.200;2024-02-28T03:46:30;21.10;;;14.82;;
24157;SDS011;12316;50.904;4.200;2024-02-28T03:48:55;19.83;;;14.27;;
24157;SDS011;12316;50.904;4.200;2024-02-28T03:51:21;22.13;;;14.18;;
24157;SDS011;12316;50.904;4.200;2024-02-28T03:53:47;20.00;;;13.73;;
24157;SDS011;12316;50.904;4.200;2024-02-28T03:56:12;20.85;;;13.88;;
24157;SDS011;12316;50.904;4.200;2024-02-28T03:58:39;20.40;;;14.52;;
24157;SDS011;12316;50.904;4.200;2024-02-28T04:01:05;21.60;;;14.30;;
24157;SDS011;12316;50.904;4.200;2024-02-28T04:03:31;19.15;;;13.52;;
24157;SDS011;12316;50.904;4.200;2024-02-28T04:05:56;18.80;;;13.98;;
24157;SDS011;12316;50.904;4.200;2024-02-28T04:08:23;18.88;;;13.10;;
24157;SDS011;12316;50.904;4.200;2024-02-28T04:10:49;20.30;;;14.15;;
24157;SDS011;12316;50.904;4.200;2024-02-28T04:13:16;23.83;;;15.95;;
24157;SDS011;12316;50.904;4.200;2024-02-28T04:15:41;20.02;;;13.85;;
24157;SDS011;12316;50.904;4.200;2024-02-28T04:18:08;17.90;;;12.68;;
24157;SDS011;12316;50.904;4.200;2024-02-28T04:20:34;19.90;;;12.85;;
24157;SDS011;12316;50.904;4.200;2024-02-28T04:22:59;22.38;;;13.68;;
24157;SDS011;12316;50.904;4.200;2024-02-28T04:25:25;19.42;;;13.70;;
24157;SDS011;12316;50.904;4.200;2024-02-28T04:27:51;21.10;;;13.63;;
24157;SDS011;12316;50.904;4.200;2024-02-28T04:30:16;17.90;;;13.27;;
24157;SDS011;12316;50.904;4.200;2024-02-28T04:32:42;19.58;;;14.60;;
24157;SDS011;12316;50.904;4.200;2024-02-28T04:35:07;19.83;;;14.55;;
24157;SDS011;12316;50.904;4.200;2024-02-28T04:37:34;18.73;;;13.85;;
24157;SDS011;12316;50.904;4.200;2024-02-28T04:40:01;23.02;;;15.13;;
24157;SDS011;12316;50.904;4.200;2024-02-28T04:42:28;20.25;;;14.40;;
24157;SDS011;12316;50.904;4.200;2024-02-28T04:44:53;20.88;;;14.48;;
24157;SDS011;12316;50.904;4.200;2024-02-28T04:47:19;19.95;;;14.57;;
24157;SDS011;12316;50.904;4.200;2024-02-28T04:49:44;19.25;;;13.63;;
24157;SDS011;12316;50.904;4.200;2024-02-28T04:52:10;22.13;;;15.52;;
24157;SDS011;12316;50.904;4.200;2024-02-28T04:54:35;23.02;;;16.30;;
24157;SDS011;12316;50.904;4.200;2024-02-28T04:57:01;27.08;;;16.95;;
24157;SDS011;12316;50.904;4.200;2024-02-28T04:59:28;23.73;;;15.75;;
24157;SDS011;12316;50.904;4.200;2024-02-28T05:01:53;25.25;;;16.27;;
24157;SDS011;12316;50.904;4.200;2024-02-28T05:04:19;24.85;;;15.77;;
24157;SDS011;12316;50.904;4.200;2024-02-28T05:06:45;24.05;;;16.10;;
24157;SDS011;12316;50.904;4.200;2024-02-28T05:09:11;23.70;;;15.15;;
24157;SDS011;12316;50.904;4.200;2024-02-28T05:11:37;21.73;;;14.95;;
24157;SDS011;12316;50.904;4.200;2024-02-28T05:14:02;27.20;;;15.68;;
24157;SDS011;12316;50.904;4.200;2024-02-28T05:16:28;24.27;;;16.95;;
24157;SDS011;12316;50.904;4.200;2024-02-28T05:18:53;26.92;;;16.73;;
24157;SDS011;12316;50.904;4.200;2024-02-28T05:21:19;23.45;;;15.82;;
24157;SDS011;12316;50.904;4.200;2024-02-28T05:23:45;26.98;;;17.45;;
24157;SDS011;12316;50.904;4.200;2024-02-28T05:26:10;24.60;;;17.17;;
24157;SDS011;12316;50.904;4.200;2024-02-28T05:28:36;24.85;;;16.88;;
24157;SDS011;12316;50.904;4.200;2024-02-28T05:31:25;26.33;;;18.48;;
24157;SDS011;12316;50.904;4.200;2024-02-28T05:33:53;26.50;;;16.60;;
24157;SDS011;12316;50.904;4.200;2024-02-28T05:36:21;24.45;;;16.73;;
24157;SDS011;12316;50.904;4.200;2024-02-28T05:38:50;27.10;;;17.50;;
24157;SDS011;12316;50.904;4.200;2024-02-28T05:41:16;25.13;;;17.75;;
24157;SDS011;12316;50.904;4.200;2024-02-28T05:43:43;23.80;;;17.35;;
24157;SDS011;12316;50.904;4.200;2024-02-28T05:46:08;26.05;;;18.63;;
24157;SDS011;12316;50.904;4.200;2024-02-28T05:48:34;25.83;;;16.73;;
24157;SDS011;12316;50.904;4.200;2024-02-28T05:51:00;25.73;;;17.05;;
24157;SDS011;12316;50.904;4.200;2024-02-28T05:53:28;25.65;;;17.85;;
24157;SDS011;12316;50.904;4.200;2024-02-28T05:55:58;27.33;;;17.10;;
24157;SDS011;12316;50.904;4.200;2024-02-28T05:58:23;26.63;;;18.35;;
24157;SDS011;12316;50.904;4.200;2024-02-28T06:00:50;23.85;;;17.48;;
24157;SDS011;12316;50.904;4.200;2024-02-28T06:03:17;24.40;;;17.23;;
24157;SDS011;12316;50.904;4.200;2024-02-28T06:05:42;27.23;;;18.45;;
24157;SDS011;12316;50.904;4.200;2024-02-28T06:08:08;31.90;;;20.45;;
24157;SDS011;12316;50.904;4.200;2024-02-28T06:10:34;29.83;;;19.70;;
24157;SDS011;12316;50.904;4.200;2024-02-28T06:12:59;28.60;;;20.17;;
24157;SDS011;12316;50.904;4.200;2024-02-28T06:15:25;39.33;;;20.52;;
24157;SDS011;12316;50.904;4.200;2024-02-28T06:17:51;34.08;;;21.05;;
24157;SDS011;12316;50.904;4.200;2024-02-28T06:20:17;30.92;;;19.92;;
24157;SDS011;12316;50.904;4.200;2024-02-28T06:22:42;33.03;;;21.55;;
24157;SDS011;12316;50.904;4.200;2024-02-28T06:25:08;31.77;;;20.55;;
24157;SDS011;12316;50.904;4.200;2024-02-28T06:27:43;29.48;;;19.67;;
24157;SDS011;12316;50.904;4.200;2024-02-28T06:30:08;29.90;;;19.73;;
24157;SDS011;12316;50.904;4.200;2024-02-28T06:32:34;31.98;;;20.50;;
24157;SDS011;12316;50.904;4.200;2024-02-28T06:35:00;32.50;;;20.85;;
24157;SDS011;12316;50.904;4.200;2024-02-28T06:37:26;30.83;;;20.90;;
24157;SDS011;12316;50.904;4.200;2024-02-28T06:39:51;33.72;;;21.80;;
24157;SDS011;12316;50.904;4.200;2024-02-28T06:42:18;32.47;;;22.40;;
24157;SDS011;12316;50.904;4.200;2024-02-28T06:44:44;32.03;;;21.45;;
24157;SDS011;12316;50.904;4.200;2024-02-28T06:47:09;33.92;;;21.75;;
24157;SDS011;12316;50.904;4.200;2024-02-28T06:49:35;36.33;;;23.23;;
24157;SDS011;12316;50.904;4.200;2024-02-28T06:52:00;34.90;;;22.35;;
24157;SDS011;12316;50.904;4.200;2024-02-28T06:54:26;39.90;;;22.75;;
24157;SDS011;12316;50.904;4.200;2024-02-28T06:56:53;30.05;;;22.70;;
24157;SDS011;12316;50.904;4.200;2024-02-28T06:59:20;31.92;;;21.13;;
24157;SDS011;12316;50.904;4.200;2024-02-28T07:01:45;35.97;;;21.67;;
24157;SDS011;12316;50.904;4.200;2024-02-28T07:04:11;37.42;;;22.75;;
24157;SDS011;12316;50.904;4.200;2024-02-28T07:06:37;31.65;;;21.10;;
24157;SDS011;12316;50.904;4.200;2024-02-28T07:09:02;32.65;;;22.90;;
24157;SDS011;12316;50.904;4.200;2024-02-28T07:11:28;33.95;;;22.88;;
24157;SDS011;12316;50.904;4.200;2024-02-28T07:13:54;34.00;;;22.05;;
24157;SDS011;12316;50.904;4.200;2024-02-28T07:16:22;29.10;;;20.70;;
24157;SDS011;12316;50.904;4.200;2024-02-28T07:18:47;32.33;;;21.13;;
24157;SDS011;12316;50.904;4.200;2024-02-28T07:21:13;31.23;;;20.75;;
24157;SDS011;12316;50.904;4.200;2024-02-28T07:23:39;36.50;;;22.60;;
24157;SDS011;12316;50.904;4.200;2024-02-28T07:26:06;30.88;;;22.40;;
24157;SDS011;12316;50.904;4.200;2024-02-28T07:28:32;30.85;;;21.48;;
24157;SDS011;12316;50.904;4.200;2024-02-28T07:30:57;33.38;;;21.88;;
24157;SDS011;12316;50.904;4.200;2024-02-28T07:33:23;30.30;;;21.05;;
24157;SDS011;12316;50.904;4.200;2024-02-28T07:35:49;32.08;;;20.27;;
24157;SDS011;12316;50.904;4.200;2024-02-28T07:38:17;33.00;;;19.05;;
24157;SDS011;12316;50.904;4.200;2024-02-28T07:40:45;31.80;;;19.33;;
24157;SDS011;12316;50.904;4.200;2024-02-28T07:43:11;31.23;;;20.23;;
24157;SDS011;12316;50.904;4.200;2024-02-28T07:45:36;31.23;;;19.73;;
24157;SDS011;12316;50.904;4.200;2024-02-28T07:48:02;28.00;;;19.40;;
24157;SDS011;12316;50.904;4.200;2024-02-28T07:50:28;33.95;;;19.60;;
24157;SDS011;12316;50.904;4.200;2024-02-28T07:52:55;28.83;;;19.27;;
24157;SDS011;12316;50.904;4.200;2024-02-28T07:55:20;29.83;;;18.85;;
24157;SDS011;12316;50.904;4.200;2024-02-28T07:57:50;27.20;;;18.27;;
24157;SDS011;12316;50.904;4.200;2024-02-28T08:00:16;26.15;;;18.15;;
24157;SDS011;12316;50.904;4.200;2024-02-28T08:02:44;30.17;;;17.52;;
24157;SDS011;12316;50.904;4.200;2024-02-28T08:05:09;30.42;;;17.20;;
24157;SDS011;12316;50.904;4.200;2024-02-28T08:07:35;32.13;;;18.38;;
24157;SDS011;12316;50.904;4.200;2024-02-28T08:10:01;30.25;;;16.60;;
24157;SDS011;12316;50.904;4.200;2024-02-28T08:12:30;26.00;;;16.45;;
24157;SDS011;12316;50.904;4.200;2024-02-28T08:14:56;24.50;;;16.30;;
24157;SDS011;12316;50.904;4.200;2024-02-28T08:17:22;28.13;;;16.63;;
24157;SDS011;12316;50.904;4.200;2024-02-28T08:19:48;25.10;;;15.95;;
24157;SDS011;12316;50.904;4.200;2024-02-28T08:22:15;26.88;;;16.25;;
24157;SDS011;12316;50.904;4.200;2024-02-28T08:24:40;25.17;;;15.27;;
24157;SDS011;12316;50.904;4.200;2024-02-28T08:27:06;25.90;;;15.10;;
24157;SDS011;12316;50.904;4.200;2024-02-28T08:29:32;27.23;;;16.45;;
24157;SDS011;12316;50.904;4.200;2024-02-28T08:31:59;27.23;;;15.00;;
24157;SDS011;12316;50.904;4.200;2024-02-28T08:34:24;24.52;;;14.93;;
24157;SDS011;12316;50.904;4.200;2024-02-28T08:36:50;26.75;;;15.80;;
24157;SDS011;12316;50.904;4.200;2024-02-28T08:39:17;28.08;;;15.52;;
24157;SDS011;12316;50.904;4.200;2024-02-28T08:41:42;21.45;;;14.73;;
24157;SDS011;12316;50.904;4.200;2024-02-28T08:44:08;22.77;;;14.43;;
24157;SDS011;12316;50.904;4.200;2024-02-28T08:46:34;25.45;;;15.15;;
24157;SDS011;12316;50.904;4.200;2024-02-28T08:49:00;22.02;;;14.30;;
24157;SDS011;12316;50.904;4.200;2024-02-28T08:51:26;29.30;;;13.80;;
24157;SDS011;12316;50.904;4.200;2024-02-28T08:53:52;29.13;;;14.20;;
24157;SDS011;12316;50.904;4.200;2024-02-28T08:56:20;21.98;;;14.20;;
24157;SDS011;12316;50.904;4.200;2024-02-28T08:58:46;23.83;;;13.68;;
24157;SDS011;12316;50.904;4.200;2024-02-28T09:01:14;23.75;;;14.05;;
24157;SDS011;12316;50.904;4.200;2024-02-28T09:03:40;21.67;;;13.63;;
24157;SDS011;12316;50.904;4.200;2024-02-28T09:06:06;23.45;;;13.75;;
24157;SDS011;12316;50.904;4.200;2024-02-28T09:08:32;20.42;;;13.85;;
24157;SDS011;12316;50.904;4.200;2024-02-28T09:10:57;26.48;;;13.23;;
24157;SDS011;12316;50.904;4.200;2024-02-28T09:13:23;19.27;;;12.90;;
24157;SDS011;12316;50.904;4.200;2024-02-28T09:15:49;21.48;;;12.60;;
24157;SDS011;12316;50.904;4.200;2024-02-28T09:18:16;25.75;;;13.20;;
24157;SDS011;12316;50.904;4.200;2024-02-28T09:20:41;25.25;;;13.35;;
24157;SDS011;12316;50.904;4.200;2024-02-28T09:23:07;23.75;;;12.75;;
24157;SDS011;12316;50.904;4.200;2024-02-28T09:25:33;30.17;;;13.60;;
24157;SDS011;12316;50.904;4.200;2024-02-28T09:28:00;23.85;;;13.75;;
24157;SDS011;12316;50.904;4.200;2024-02-28T09:30:26;23.38;;;13.77;;
24157;SDS011;12316;50.904;4.200;2024-02-28T09:32:52;24.40;;;13.52;;
24157;SDS011;12316;50.904;4.200;2024-02-28T09:35:18;25.50;;;13.63;;
24157;SDS011;12316;50.904;4.200;2024-02-28T09:37:44;25.23;;;14.00;;
24157;SDS011;12316;50.904;4.200;2024-02-28T09:40:10;21.17;;;13.85;;
24157;SDS011;12316;50.904;4.200;2024-02-28T09:42:36;22.45;;;14.18;;
24157;SDS011;12316;50.904;4.200;2024-02-28T09:45:02;23.80;;;14.05;;
24157;SDS011;12316;50.904;4.200;2024-02-28T09:47:29;26.75;;;14.70;;
24157;SDS011;12316;50.904;4.200;2024-02-28T09:49:55;26.63;;;15.10;;
24157;SDS011;12316;50.904;4.200;2024-02-28T09:52:25;28.17;;;14.27;;
24157;SDS011;12316;50.904;4.200;2024-02-28T09:54:53;24.88;;;13.75;;
24157;SDS011;12316;50.904;4.200;2024-02-28T09:57:20;25.67;;;14.27;;
24157;SDS011;12316;50.904;4.200;2024-02-28T09:59:53;22.77;;;12.98;;
24157;SDS011;12316;50.904;4.200;2024-02-28T10:02:21;22.27;;;12.93;;
24157;SDS011;12316;50.904;4.200;2024-02-28T10:04:48;21.08;;;13.88;;
24157;SDS011;12316;50.904;4.200;2024-02-28T10:07:14;19.92;;;12.07;;
24157;SDS011;12316;50.904;4.200;2024-02-28T10:09:43;21.42;;;12.43;;
24157;SDS011;12316;50.904;4.200;2024-02-28T10:12:09;20.75;;;12.07;;
24157;SDS011;12316;50.904;4.200;2024-02-28T10:14:34;19.88;;;12.38;;
24157;SDS011;12316;50.904;4.200;2024-02-28T10:17:00;18.80;;;11.93;;
24157;SDS011;12316;50.904;4.200;2024-02-28T10:19:26;18.58;;;12.60;;
24157;SDS011;12316;50.904;4.200;2024-02-28T10:21:52;15.80;;;11.52;;
24157;SDS011;12316;50.904;4.200;2024-02-28T10:24:17;15.25;;;11.48;;
24157;SDS011;12316;50.904;4.200;2024-02-28T10:26:47;17.05;;;11.27;;
24157;SDS011;12316;50.904;4.200;2024-02-28T10:29:22;17.63;;;11.23;;
24157;SDS011;12316;50.904;4.200;2024-02-28T10:31:53;17.70;;;11.80;;
24157;SDS011;12316;50.904;4.200;2024-02-28T10:34:20;18.83;;;12.75;;
24157;SDS011;12316;50.904;4.200;2024-02-28T10:36:46;22.77;;;13.35;;
24157;SDS011;12316;50.904;4.200;2024-02-28T10:39:12;20.02;;;12.43;;
24157;SDS011;12316;50.904;4.200;2024-02-28T10:41:39;19.63;;;12.63;;
24157;SDS011;12316;50.904;4.200;2024-02-28T10:44:05;20.15;;;13.30;;
24157;SDS011;12316;50.904;4.200;2024-02-28T10:46:30;17.08;;;12.82;;
24157;SDS011;12316;50.904;4.200;2024-02-28T10:48:56;21.00;;;12.93;;
24157;SDS011;12316;50.904;4.200;2024-02-28T10:51:23;21.42;;;13.20;;
24157;SDS011;12316;50.904;4.200;2024-02-28T10:54:09;21.42;;;13.68;;
24157;SDS011;12316;50.904;4.200;2024-02-28T10:56:42;21.23;;;13.10;;
24157;SDS011;12316;50.904;4.200;2024-02-28T10:59:11;20.58;;;12.93;;
24157;SDS011;12316;50.904;4.200;2024-02-28T11:01:41;16.83;;;12.50;;
24157;SDS011;12316;50.904;4.200;2024-02-28T11:04:08;16.75;;;12.57;;
24157;SDS011;12316;50.904;4.200;2024-02-28T11:06:50;15.88;;;12.60;;
24157;SDS011;12316;50.904;4.200;2024-02-28T11:09:23;18.40;;;12.73;;
24157;SDS011;12316;50.904;4.200;2024-02-28T11:11:54;18.60;;;11.45;;
24157;SDS011;12316;50.904;4.200;2024-02-28T11:14:21;17.13;;;11.68;;
24157;SDS011;12316;50.904;4.200;2024-02-28T11:17:02;17.15;;;12.02;;
24157;SDS011;12316;50.904;4.200;2024-02-28T11:19:33;17.40;;;11.20;;
24157;SDS011;12316;50.904;4.200;2024-02-28T11:21:59;22.05;;;12.00;;
24157;SDS011;12316;50.904;4.200;2024-02-28T11:24:30;15.38;;;11.38;;
24157;SDS011;12316;50.904;4.200;2024-02-28T11:26:57;16.73;;;10.90;;
24157;SDS011;12316;50.904;4.200;2024-02-28T11:29:26;15.85;;;10.80;;
24157;SDS011;12316;50.904;4.200;2024-02-28T11:32:04;16.60;;;10.40;;
24157;SDS011;12316;50.904;4.200;2024-02-28T11:34:32;16.83;;;11.18;;
24157;SDS011;12316;50.904;4.200;2024-02-28T11:37:01;16.58;;;10.90;;
24157;SDS011;12316;50.904;4.200;2024-02-28T11:39:27;14.27;;;9.98;;
24157;SDS011;12316;50.904;4.200;2024-02-28T11:41:54;15.18;;;10.77;;
24157;SDS011;12316;50.904;4.200;2024-02-28T11:44:20;14.52;;;9.90;;
24157;SDS011;12316;50.904;4.200;2024-02-28T11:46:51;12.75;;;9.60;;
24157;SDS011;12316;50.904;4.200;2024-02-28T11:49:19;17.15;;;9.63;;
24157;SDS011;12316;50.904;4.200;2024-02-28T11:51:46;12.50;;;9.32;;
24157;SDS011;12316;50.904;4.200;2024-02-28T11:54:14;16.70;;;9.88;;
24157;SDS011;12316;50.904;4.200;2024-02-28T11:56:42;13.40;;;9.25;;
24157;SDS011;12316;50.904;4.200;2024-02-28T11:59:15;13.23;;;8.70;;
24157;SDS011;12316;50.904;4.200;2024-02-28T12:01:44;11.93;;;8.73;;
24157;SDS011;12316;50.904;4.200;2024-02-28T12:04:11;14.90;;;7.82;;
24157;SDS011;12316;50.904;4.200;2024-02-28T12:06:38;15.10;;;8.85;;
24157;SDS011;12316;50.904;4.200;2024-02-28T12:09:16;10.00;;;8.50;;
24157;SDS011;12316;50.904;4.200;2024-02-28T12:11:43;10.82;;;8.00;;
24157;SDS011;12316;50.904;4.200;2024-02-28T12:14:09;13.05;;;8.50;;
24157;SDS011;12316;50.904;4.200;2024-02-28T12:16:41;11.75;;;7.78;;
24157;SDS011;12316;50.904;4.200;2024-02-28T12:19:10;11.60;;;8.40;;
24157;SDS011;12316;50.904;4.200;2024-02-28T12:21:39;11.25;;;7.90;;
24157;SDS011;12316;50.904;4.200;2024-02-28T12:24:07;12.88;;;8.10;;
24157;SDS011;12316;50.904;4.200;2024-02-28T12:26:42;11.45;;;8.07;;
24157;SDS011;12316;50.904;4.200;2024-02-28T12:29:08;9.50;;;7.55;;
24157;SDS011;12316;50.904;4.200;2024-02-28T12:31:38;11.77;;;7.57;;
24157;SDS011;12316;50.904;4.200;2024-02-28T12:34:06;11.75;;;7.68;;
24157;SDS011;12316;50.904;4.200;2024-02-28T12:36:35;19.10;;;8.18;;
24157;SDS011;12316;50.904;4.200;2024-02-28T12:39:01;9.00;;;7.03;;
24157;SDS011;12316;50.904;4.200;2024-02-28T12:41:32;9.48;;;7.07;;
24157;SDS011;12316;50.904;4.200;2024-02-28T12:44:02;10.88;;;7.05;;
24157;SDS011;12316;50.904;4.200;2024-02-28T12:46:29;9.25;;;7.47;;
24157;SDS011;12316;50.904;4.200;2024-02-28T12:48:55;12.90;;;7.28;;
24157;SDS011;12316;50.904;4.200;2024-02-28T12:51:42;12.48;;;6.88;;
24157;SDS011;12316;50.904;4.200;2024-02-28T12:54:10;9.65;;;7.10;;
24157;SDS011;12316;50.904;4.200;2024-02-28T12:56:36;9.73;;;6.88;;
24157;SDS011;12316;50.904;4.200;2024-02-28T12:59:03;8.75;;;6.80;;
24157;SDS011;12316;50.904;4.200;2024-02-28T13:01:32;9.68;;;6.90;;
24157;SDS011;12316;50.904;4.200;2024-02-28T13:03:59;9.25;;;6.75;;
24157;SDS011;12316;50.904;4.200;2024-02-28T13:06:24;12.75;;;6.90;;
24157;SDS011;12316;50.904;4.200;2024-02-28T13:08:50;10.85;;;6.50;;
24157;SDS011;12316;50.904;4.200;2024-02-28T13:11:18;12.65;;;6.80;;
24157;SDS011;12316;50.904;4.200;2024-02-28T13:13:48;11.48;;;6.70;;
24157;SDS011;12316;50.904;4.200;2024-02-28T13:16:15;10.60;;;6.88;;
24157;SDS011;12316;50.904;4.200;2024-02-28T13:18:41;9.52;;;6.72;;
24157;SDS011;12316;50.904;4.200;2024-02-28T13:21:07;11.07;;;7.22;;
24157;SDS011;12316;50.904;4.200;2024-02-28T13:23:34;11.80;;;7.07;;
24157;SDS011;12316;50.904;4.200;2024-02-28T13:26:00;8.95;;;6.50;;
24157;SDS011;12316;50.904;4.200;2024-02-28T13:28:26;8.80;;;6.47;;
24157;SDS011;12316;50.904;4.200;2024-02-28T13:30:58;10.00;;;6.45;;
24157;SDS011;12316;50.904;4.200;2024-02-28T13:33:25;10.05;;;6.40;;
24157;SDS011;12316;50.904;4.200;2024-02-28T13:35:51;12.27;;;6.40;;
24157;SDS011;12316;50.904;4.200;2024-02-28T13:38:18;10.63;;;6.22;;
24157;SDS011;12316;50.904;4.200;2024-02-28T13:40:45;10.60;;;6.20;;
24157;SDS011;12316;50.904;4.200;2024-02-28T13:43:14;8.32;;;6.10;;
24157;SDS011;12316;50.904;4.200;2024-02-28T13:45:45;10.30;;;5.68;;
24157;SDS011;12316;50.904;4.200;2024-02-28T13:48:19;9.07;;;5.60;;
24157;SDS011;12316;50.904;4.200;2024-02-28T13:50:49;7.07;;;4.97;;
24157;SDS011;12316;50.904;4.200;2024-02-28T13:53:15;7.45;;;5.28;;
24157;SDS011;12316;50.904;4.200;2024-02-28T13:55:41;10.73;;;5.60;;
24157;SDS011;12316;50.904;4.200;2024-02-28T13:58:08;12.10;;;5.38;;
24157;SDS011;12316;50.904;4.200;2024-02-28T14:00:35;9.23;;;5.28;;
24157;SDS011;12316;50.904;4.200;2024-02-28T14:03:01;8.88;;;5.40;;
24157;SDS011;12316;50.904;4.200;2024-02-28T14:05:28;7.53;;;4.93;;
24157;SDS011;12316;50.904;4.200;2024-02-28T14:07:54;8.48;;;5.13;;
24157;SDS011;12316;50.904;4.200;2024-02-28T14:10:23;8.25;;;5.10;;
24157;SDS011;12316;50.904;4.200;2024-02-28T14:12:49;7.93;;;4.70;;
24157;SDS011;12316;50.904;4.200;2024-02-28T14:15:18;9.88;;;4.60;;
24157;SDS011;12316;50.904;4.200;2024-02-28T14:17:45;9.40;;;5.00;;
24157;SDS011;12316;50.904;4.200;2024-02-28T14:20:11;8.27;;;4.75;;
24157;SDS011;12316;50.904;4.200;2024-02-28T14:22:37;6.07;;;4.30;;
24157;SDS011;12316;50.904;4.200;2024-02-28T14:25:06;7.13;;;4.20;;
24157;SDS011;12316;50.904;4.200;2024-02-28T14:27:36;8.55;;;4.55;;